Time;durP1;ratioP1;P1;durP2;ratioP2;P2;SDS_P1;SDS_P2;PMS_P1;PMS_P2;Temp;Humidity;BMP_temperature;BMP_pressure;BME280_temperature;BME280_humidity;BME280_pressure;Samples;Min_cycle;Max_cycle;Signal;HPM_P1;HPM_P2
2023/08/20 00:00:23;;;;;;;;;;;;;;;9.50;100.00;100068.78;4925213;29;20275;-88
2023/08/20 00:02:58;;;;;;;;;;;;;;;9.22;100.00;100072.31;4923501;29;19920;-91
2023/08/20 00:05:25;;;;;;;;;;;;;;;8.82;100.00;100066.56;4929454;29;19925;-93
2023/08/20 00:07:50;;;;;;;;;;;;;;;8.85;100.00;100060.28;4924888;29;19959;-86
2023/08/20 00:10:18;;;;;;;;;;;;;;;8.72;100.00;100050.09;4925293;29;20315;-89
2023/08/20 00:12:44;;;;;;;;;;;;;;;8.59;100.00;100053.19;4925197;29;19975;-91
2023/08/20 00:15:09;;;;;;;;;;;;;;;8.59;100.00;100055.81;4921424;29;19959;-86
2023/08/20 00:17:36;;;;;;;;;;;;;;;8.59;100.00;100045.25;4924079;29;20474;-86
2023/08/20 00:20:08;;;;;;;;;;;;;;;8.48;100.00;100054.34;4921259;29;20439;-87
2023/08/20 00:22:34;;;;;;;;;;;;;;;8.50;100.00;100049.91;4933760;29;19919;-87
2023/08/20 00:24:59;;;;;;;;;;;;;;;8.44;100.00;100051.84;4920395;29;19926;-86
2023/08/20 00:27:25;;;;;;;;;;;;;;;8.47;100.00;100059.69;4923534;29;19933;-85
2023/08/20 07:43:23;;;;;;;;;;;;;;;7.26;100.00;100151.69;5791697;23;20396;-86
2023/08/20 07:45:48;;;;;;;;;;;;;;;7.30;100.00;100148.06;4958857;28;20393;-87
2023/08/20 07:48:14;;;;;;;;;;;;;;;7.27;100.00;100158.66;4945241;28;19927;-87
2023/08/20 07:50:39;;;;;;;;;;;;;;;7.30;100.00;100155.13;4945245;29;19919;-87
2023/08/20 07:53:04;;;;;;;;;;;;;;;7.30;100.00;100153.34;4944209;29;20366;-87
2023/08/20 07:55:31;;;;;;;;;;;;;;;7.33;100.00;100158.53;4944513;29;19925;-87
2023/08/20 07:57:56;;;;;;;;;;;;;;;7.27;100.00;100151.66;4943499;29;20370;-86
2023/08/20 08:00:21;;;;;;;;;;;;;;;7.27;100.00;100148.13;4944186;29;19977;-85
2023/08/20 08:02:46;;;;;;;;;;;;;;;7.33;100.00;100142.72;4944345;28;19922;-85
2023/08/20 08:05:14;;;;;;;;;;;;;;;7.43;100.00;100146.84;4944400;28;19926;-85
2023/08/20 08:07:39;;;;;;;;;;;;;;;7.21;100.00;100138.63;4944384;28;20033;-89
2023/08/20 08:10:05;;;;;;;;;;;;;;;7.31;100.00;100133.09;4948006;29;20407;-84
2023/08/20 08:12:30;;;;;;;;;;;;;;;7.29;100.00;100125.22;4946591;29;20142;-84
2023/08/20 08:14:55;;;;;;;;;;;;;;;7.31;100.00;100119.91;4948705;28;19969;-84
2023/08/20 08:17:20;;;;;;;;;;;;;;;7.34;100.00;100115.47;4948027;28;19919;-84
2023/08/20 08:19:46;;;;;;;;;;;;;;;7.42;100.00;100121.41;4947747;29;20490;-85
2023/08/20 08:22:11;;;;;;;;;;;;;;;7.42;100.00;100131.97;4946728;29;19922;-84
2023/08/20 08:24:36;;;;;;;;;;;;;;;7.40;100.00;100133.78;4948141;28;20332;-85
2023/08/20 08:27:01;;;;;;;;;;;;;;;7.45;100.00;100141.53;4947795;28;19923;-84
2023/08/20 08:29:27;;;;;;;;;;;;;;;7.49;100.00;100147.63;4946414;29;20313;-83
2023/08/20 08:31:52;;;;;;;;;;;;;;;7.46;100.00;100138.00;4946453;29;19933;-84
2023/08/20 08:34:18;;;;;;;;;;;;;;;7.52;100.00;100135.22;4946999;29;19933;-84
2023/08/20 08:36:44;;;;;;;;;;;;;;;7.94;100.00;100139.44;4947630;29;19933;-84
2023/08/20 08:39:09;;;;;;;;;;;;;;;8.24;100.00;100143.03;4947588;29;20471;-84
2023/08/20 08:41:35;;;;;;;;;;;;;;;8.48;100.00;100152.06;4947583;28;19918;-84
2023/08/20 08:44:01;;;;;;;;;;;;;;;8.24;100.00;100158.00;4944981;29;19958;-84
2023/08/20 08:46:26;;;;;;;;;;;;;;;7.92;100.00;100168.50;4947303;28;19923;-84
2023/08/20 08:48:52;;;;;;;;;;;;;;;7.81;100.00;100163.50;4947146;29;19930;-85
2023/08/20 08:51:18;;;;;;;;;;;;;;;8.05;100.00;100161.13;4946376;29;19919;-85
2023/08/20 08:53:44;;;;;;;;;;;;;;;8.27;100.00;100161.44;4946044;29;19948;-84
2023/08/20 12:31:48;;;;;;;;;;;;;;;7.53;100.00;100122.91;4972076;28;19938;-84
2023/08/20 12:34:13;;;;;;;;;;;;;;;7.34;100.00;100112.81;4950040;28;19923;-87
2023/08/20 12:36:39;;;;;;;;;;;;;;;7.34;100.00;100112.81;4972734;28;19922;-84
2023/08/20 12:39:04;;;;;;;;;;;;;;;7.29;100.00;100117.31;4955618;28;20005;-83
2023/08/20 12:41:30;;;;;;;;;;;;;;;7.74;100.00;100110.97;4972775;28;19922;-83
2023/08/20 12:43:55;;;;;;;;;;;;;;;8.26;100.00;100119.22;4971547;28;20068;-83
2023/08/20 12:46:21;;;;;;;;;;;;;;;8.50;100.00;100118.56;4955431;28;19918;-86
2023/08/20 12:48:46;;;;;;;;;;;;;;;8.57;100.00;100118.38;4955393;28;19957;-86
2023/08/20 12:51:13;;;;;;;;;;;;;;;8.12;100.00;100122.25;4972642;28;19930;-86
2023/08/20 12:53:39;;;;;;;;;;;;;;;8.50;100.00;100120.34;4972718;28;19921;-86
2023/08/20 12:56:12;;;;;;;;;;;;;;;8.75;100.00;100116.97;4974874;28;19918;-86
2023/08/20 12:58:37;;;;;;;;;;;;;;;8.90;100.00;100114.75;4972465;28;20639;-84
2023/08/20 13:01:06;;;;;;;;;;;;;;;8.45;100.00;100109.91;4975985;28;19914;-87
2023/08/20 13:03:34;;;;;;;;;;;;;;;8.02;100.00;100110.22;4958823;28;19922;-88
2023/08/20 13:05:59;;;;;;;;;;;;;;;8.24;100.00;100110.50;4975945;28;20399;-87
2023/08/20 13:08:25;;;;;;;;;;;;;;;8.56;100.00;100103.44;4976074;28;20009;-89
2023/08/20 13:10:55;;;;;;;;;;;;;;;8.81;100.00;100115.00;4958470;28;20009;-87
2023/08/20 13:13:23;;;;;;;;;;;;;;;9.00;100.00;100111.78;4974147;28;20044;-87
2023/08/20 13:15:52;;;;;;;;;;;;;;;8.44;100.00;100110.81;4975086;28;19945;-87
2023/08/20 13:18:24;;;;;;;;;;;;;;;8.45;100.00;100103.75;4975935;28;20401;-87
2023/08/20 13:20:50;;;;;;;;;;;;;;;8.82;100.00;100100.91;4975295;28;19929;-87
2023/08/20 13:23:15;;;;;;;;;;;;;;;9.04;100.00;100097.56;4958172;28;19918;-87
2023/08/20 13:25:40;;;;;;;;;;;;;;;9.12;100.00;100090.25;4975492;28;19922;-87
2023/08/20 13:28:05;;;;;;;;;;;;;;;8.71;100.00;100089.75;4975693;28;19918;-87
2023/08/20 13:30:33;;;;;;;;;;;;;;;8.86;100.00;100086.66;4956794;28;19922;-87
2023/08/20 13:32:58;;;;;;;;;;;;;;;9.03;100.00;100090.53;4974678;28;20014;-87
2023/08/20 13:35:23;;;;;;;;;;;;;;;9.18;100.00;100090.06;4975568;28;19981;-87
2023/08/20 13:37:49;;;;;;;;;;;;;;;8.86;100.00;100084.03;4975404;28;20345;-87
2023/08/20 13:40:14;;;;;;;;;;;;;;;8.51;100.00;100093.88;4975356;28;19925;-87
2023/08/20 13:42:39;;;;;;;;;;;;;;;8.41;100.00;100087.13;4975334;28;19918;-88
2023/08/20 13:45:05;;;;;;;;;;;;;;;8.33;100.00;100089.13;4974111;28;20337;-87
2023/08/20 13:47:30;;;;;;;;;;;;;;;8.28;100.00;100083.06;4958004;28;19929;-87
2023/08/20 13:49:56;;;;;;;;;;;;;;;8.38;100.00;100076.63;4957729;28;19961;-87
2023/08/20 13:52:24;;;;;;;;;;;;;;;8.79;100.00;100079.84;4957827;28;19922;-86
2023/08/20 13:55:03;;;;;;;;;;;;;;;9.01;100.00;100092.38;4957563;28;20370;-90
2023/08/20 13:57:29;;;;;;;;;;;;;;;8.89;100.00;100089.22;4974968;28;19925;-87
2023/08/20 13:59:54;;;;;;;;;;;;;;;8.53;100.00;100088.56;4973742;28;19918;-87
2023/08/20 14:02:22;;;;;;;;;;;;;;;8.80;100.00;100083.34;4957565;28;19925;-87
2023/08/20 14:04:50;;;;;;;;;;;;;;;9.04;100.00;100081.72;4975172;28;20314;-87
2023/08/20 14:07:16;;;;;;;;;;;;;;;9.19;100.00;100086.53;4974547;28;20366;-87
2023/08/20 14:09:41;;;;;;;;;;;;;;;8.63;100.00;100086.50;4956487;28;19941;-87
2023/08/20 14:12:07;;;;;;;;;;;;;;;8.86;100.00;100083.16;4974349;28;19917;-87
2023/08/20 14:14:32;;;;;;;;;;;;;;;9.13;100.00;100080.56;4973696;28;19922;-86
2023/08/20 14:16:57;;;;;;;;;;;;;;;9.30;100.00;100087.94;4974631;28;19926;-86
2023/08/20 14:19:22;;;;;;;;;;;;;;;8.98;100.00;100082.75;4974793;28;19988;-85
2023/08/20 14:21:48;;;;;;;;;;;;;;;8.65;100.00;100082.06;4974665;28;19925;-86
2023/08/20 14:24:13;;;;;;;;;;;;;;;8.54;100.00;100080.59;4974558;28;19948;-86
2023/08/20 14:26:41;;;;;;;;;;;;;;;8.50;100.00;100078.97;4957073;28;20024;-91
2023/08/20 14:29:07;;;;;;;;;;;;;;;8.67;100.00;100081.06;4955801;28;19941;-87
2023/08/20 14:31:32;;;;;;;;;;;;;;;9.02;100.00;100073.84;4974512;28;19922;-88
2023/08/20 14:33:57;;;;;;;;;;;;;;;9.26;100.00;100073.97;4957168;28;20374;-87
2023/08/20 14:36:22;;;;;;;;;;;;;;;9.27;100.00;100079.19;4974334;28;19921;-86
2023/08/20 14:38:48;;;;;;;;;;;;;;;8.65;100.00;100082.06;4956784;28;20229;-87
2023/08/20 14:41:13;;;;;;;;;;;;;;;8.80;100.00;100073.63;4957074;28;19925;-89
2023/08/20 14:43:38;;;;;;;;;;;;;;;9.15;100.00;100070.81;4955749;28;20619;-87
2023/08/20 14:46:04;;;;;;;;;;;;;;;9.36;100.00;100071.88;4974256;28;20031;-88
2023/08/20 14:48:29;;;;;;;;;;;;;;;9.41;100.00;100067.28;4956637;28;19926;-87
2023/08/20 14:51:03;;;;;;;;;;;;;;;9.03;100.00;100069.41;4974104;28;20627;-88
2023/08/20 14:53:28;;;;;;;;;;;;;;;9.35;100.00;100070.13;4972626;28;19918;-87
2023/08/20 14:55:53;;;;;;;;;;;;;;;9.53;100.00;100069.53;4974060;28;19918;-86
2023/08/20 14:58:18;;;;;;;;;;;;;;;9.61;100.00;100070.13;4974035;28;19918;-87
2023/08/20 15:00:44;;;;;;;;;;;;;;;9.06;100.00;100070.19;4973156;28;19957;-94
2023/08/20 15:03:10;;;;;;;;;;;;;;;9.31;100.00;100064.09;4973916;28;19929;-87
2023/08/20 15:05:35;;;;;;;;;;;;;;;9.60;100.00;100070.16;4973091;28;20010;-87
2023/08/20 15:08:02;;;;;;;;;;;;;;;9.67;100.00;100068.16;4973648;28;20017;-87
2023/08/20 15:10:36;;;;;;;;;;;;;;;9.43;100.00;100068.97;4973866;28;20216;-87
2023/08/20 15:13:03;;;;;;;;;;;;;;;9.25;100.00;100065.16;4956266;28;19918;-89
2023/08/20 15:15:28;;;;;;;;;;;;;;;9.45;100.00;100058.34;4955063;28;20052;-87
2023/08/20 15:17:54;;;;;;;;;;;;;;;9.57;100.00;100060.59;4973085;28;20013;-86
2023/08/20 15:20:19;;;;;;;;;;;;;;;9.42;100.00;100067.22;4973569;28;19922;-87
2023/08/20 15:22:45;;;;;;;;;;;;;;;9.00;100.00;100067.75;4973650;28;19925;-86
2023/08/20 15:25:10;;;;;;;;;;;;;;;8.88;100.00;100062.84;4973491;28;20282;-86
2023/08/20 15:27:36;;;;;;;;;;;;;;;8.80;100.00;100060.44;4973875;28;19922;-87
2023/08/20 15:30:03;;;;;;;;;;;;;;;9.03;100.00;100054.44;4954450;28;19926;-87
2023/08/20 15:32:28;;;;;;;;;;;;;;;9.19;100.00;100054.78;4972884;28;19950;-85
2023/08/20 15:34:54;;;;;;;;;;;;;;;9.41;100.00;100048.78;4973341;28;19915;-88
2023/08/20 15:37:20;;;;;;;;;;;;;;;8.98;100.00;100050.19;4973393;28;20506;-90
2023/08/20 15:39:45;;;;;;;;;;;;;;;8.58;100.00;100041.72;4955884;28;19922;-85
2023/08/20 15:42:13;;;;;;;;;;;;;;;8.60;100.00;100041.69;4955855;28;19922;-87
2023/08/20 15:44:39;;;;;;;;;;;;;;;8.61;100.00;100043.41;4971273;28;20445;-86
2023/08/20 15:47:04;;;;;;;;;;;;;;;8.58;100.00;100035.59;4973402;28;20017;-87
2023/08/20 15:49:31;;;;;;;;;;;;;;;8.47;100.00;100033.28;4955184;28;20167;-87
2023/08/20 15:51:56;;;;;;;;;;;;;;;8.45;100.00;100033.31;4973292;28;19922;-86
2023/08/20 15:54:21;;;;;;;;;;;;;;;8.40;100.00;100035.19;4973159;28;19918;-87
2023/08/20 15:56:47;;;;;;;;;;;;;;;8.34;100.00;100030.09;4973094;28;20285;-86
2023/08/20 15:59:12;;;;;;;;;;;;;;;8.31;100.00;100036.34;4972317;28;20009;-87
2023/08/20 16:01:38;;;;;;;;;;;;;;;8.27;100.00;100031.22;4955875;28;19924;-87
2023/08/20 16:04:03;;;;;;;;;;;;;;;8.28;100.00;100027.63;4956091;28;19918;-87
2023/08/20 16:06:29;;;;;;;;;;;;;;;8.15;100.00;100028.03;4973269;28;19918;-87
2023/08/20 16:08:54;;;;;;;;;;;;;;;8.28;100.00;100027.63;4973095;28;19922;-86
2023/08/20 16:11:19;;;;;;;;;;;;;;;8.37;100.00;100025.59;4973157;28;19918;-86
2023/08/20 16:13:45;;;;;;;;;;;;;;;8.76;100.00;100037.69;4971820;28;19922;-87
2023/08/20 16:16:15;;;;;;;;;;;;;;;9.01;100.00;100039.53;4955733;28;20022;-86
2023/08/20 16:18:41;;;;;;;;;;;;;;;9.17;100.00;100046.03;4954909;28;20281;-87
2023/08/20 16:21:08;;;;;;;;;;;;;;;8.71;100.00;100042.22;4972843;28;19925;-90
2023/08/20 16:23:34;;;;;;;;;;;;;;;8.56;100.00;100040.06;4973245;28;19944;-84
2023/08/20 16:26:01;;;;;;;;;;;;;;;8.45;100.00;100043.88;4972853;28;20005;-87
2023/08/20 16:28:27;;;;;;;;;;;;;;;8.40;100.00;100031.72;4971968;28;19922;-87
2023/08/20 16:30:53;;;;;;;;;;;;;;;8.34;100.00;100027.47;4976307;28;20031;-87
2023/08/20 16:33:19;;;;;;;;;;;;;;;8.31;100.00;100028.44;4976412;28;19933;-87
2023/08/20 16:35:45;;;;;;;;;;;;;;;8.50;100.00;100028.78;4976548;28;19948;-86
2023/08/20 16:38:10;;;;;;;;;;;;;;;8.85;100.00;100040.00;4976490;28;20432;-86
2023/08/20 16:40:36;;;;;;;;;;;;;;;9.08;100.00;100041.06;4976583;28;19929;-87
2023/08/20 16:43:01;;;;;;;;;;;;;;;8.88;100.00;100044.34;4976453;28;19918;-86
2023/08/20 16:45:27;;;;;;;;;;;;;;;8.53;100.00;100049.78;4975177;28;20428;-86
2023/08/20 16:47:52;;;;;;;;;;;;;;;8.50;100.00;100044.63;4975566;28;19922;-87
2023/08/20 16:50:18;;;;;;;;;;;;;;;8.42;100.00;100035.16;4976174;28;19921;-87
2023/08/20 16:52:43;;;;;;;;;;;;;;;8.36;100.00;100030.94;4976406;28;19918;-87
2023/08/20 16:55:09;;;;;;;;;;;;;;;8.33;100.00;100034.53;4976182;28;19941;-87
2023/08/20 16:57:34;;;;;;;;;;;;;;;8.30;100.00;100033.75;4976264;28;19922;-88
2023/08/20 16:59:59;;;;;;;;;;;;;;;8.17;100.00;100034.09;4974806;28;19924;-86
2023/08/20 17:02:25;;;;;;;;;;;;;;;8.18;100.00;100032.31;4976143;28;20416;-88
2023/08/20 17:04:50;;;;;;;;;;;;;;;8.17;100.00;100030.63;4975953;28;20001;-87
2023/08/20 17:07:15;;;;;;;;;;;;;;;8.18;100.00;100033.22;4976151;28;20373;-87
2023/08/20 17:09:43;;;;;;;;;;;;;;;8.14;100.00;100031.56;4976063;28;20009;-87
2023/08/20 17:12:08;;;;;;;;;;;;;;;8.08;100.00;100030.88;4958526;28;19922;-87
2023/08/20 17:14:33;;;;;;;;;;;;;;;8.06;100.00;100028.28;4974738;28;19925;-87
2023/08/20 17:16:59;;;;;;;;;;;;;;;8.13;100.00;100039.53;4975812;28;19922;-87
2023/08/20 17:19:24;;;;;;;;;;;;;;;8.03;100.00;100032.78;4975756;28;19922;-87
2023/08/20 17:21:50;;;;;;;;;;;;;;;8.05;100.00;100033.59;4957398;28;20388;-89
2023/08/20 17:24:15;;;;;;;;;;;;;;;7.98;100.00;100032.91;4972654;28;19973;-86
2023/08/20 17:26:41;;;;;;;;;;;;;;;8.02;100.00;100033.69;4973994;28;19918;-87
2023/08/20 17:29:06;;;;;;;;;;;;;;;7.95;100.00;100031.22;4956314;28;19939;-87
2023/08/20 17:31:32;;;;;;;;;;;;;;;7.95;100.00;100030.34;4975454;28;19922;-86
2023/08/20 17:33:57;;;;;;;;;;;;;;;8.06;100.00;100036.19;4975679;28;19930;-87
2023/08/20 17:36:23;;;;;;;;;;;;;;;8.02;100.00;100042.47;4975262;28;19922;-87
2023/08/20 17:38:48;;;;;;;;;;;;;;;8.08;100.00;100041.44;4975586;28;20286;-87
2023/08/20 17:41:13;;;;;;;;;;;;;;;8.02;100.00;100038.97;4971263;28;19914;-86
2023/08/20 17:43:38;;;;;;;;;;;;;;;7.98;100.00;100040.84;4969465;28;19929;-86
2023/08/20 17:46:04;;;;;;;;;;;;;;;7.97;100.00;100045.22;4956773;28;19925;-86
2023/08/20 17:48:29;;;;;;;;;;;;;;;8.29;100.00;100050.50;4971202;28;20305;-87
2023/08/20 17:50:57;;;;;;;;;;;;;;;8.67;100.00;100059.09;4953243;28;19922;-87
2023/08/20 17:53:28;;;;;;;;;;;;;;;8.93;100.00;100066.19;4966668;28;19941;-87
2023/08/20 17:55:54;;;;;;;;;;;;;;;8.83;100.00;100062.97;4954244;28;19929;-84
2023/08/20 17:58:22;;;;;;;;;;;;;;;8.49;100.00;100057.88;4955579;28;19926;-87
2023/08/20 18:00:53;;;;;;;;;;;;;;;8.42;100.00;100056.28;4971989;28;22051;-92
2023/08/20 18:03:19;;;;;;;;;;;;;;;8.36;100.00;100052.91;4953675;28;19930;-89
2023/08/20 18:05:44;;;;;;;;;;;;;;;8.56;100.00;100056.78;4972711;28;20053;-87
2023/08/20 18:08:10;;;;;;;;;;;;;;;8.89;100.00;100062.78;4972333;28;19941;-86
2023/08/20 18:10:36;;;;;;;;;;;;;;;9.09;100.00;100067.44;4973442;28;19918;-87
2023/08/20 18:13:02;;;;;;;;;;;;;;;9.01;100.00;100063.31;4955959;28;19933;-87
2023/08/20 18:15:31;;;;;;;;;;;;;;;8.68;100.00;100063.44;4952468;28;19933;-86
2023/08/20 18:17:56;;;;;;;;;;;;;;;8.48;100.00;100064.91;4953559;28;19933;-88
2023/08/20 18:20:22;;;;;;;;;;;;;;;8.31;100.00;100061.88;4954485;28;19930;-85
2023/08/20 18:22:47;;;;;;;;;;;;;;;8.30;100.00;100058.38;4970548;28;19926;-85
2023/08/20 18:25:12;;;;;;;;;;;;;;;8.25;100.00;100057.66;4955459;28;19922;-85
2023/08/20 18:27:39;;;;;;;;;;;;;;;8.22;100.00;100060.38;4956592;28;19922;-88
2023/08/20 18:30:08;;;;;;;;;;;;;;;8.62;100.00;100067.16;4972482;28;19973;-87
2023/08/20 18:32:33;;;;;;;;;;;;;;;8.98;100.00;100072.19;4954974;28;20539;-82
2023/08/20 18:34:59;;;;;;;;;;;;;;;9.15;100.00;100071.66;4974064;28;19918;-85
2023/08/20 18:37:24;;;;;;;;;;;;;;;8.66;100.00;100078.47;4972500;28;19926;-86
2023/08/20 18:39:50;;;;;;;;;;;;;;;8.54;100.00;100077.09;4970743;28;19923;-85
2023/08/20 18:42:16;;;;;;;;;;;;;;;8.41;100.00;100075.66;4973153;28;19929;-86
2023/08/20 18:44:41;;;;;;;;;;;;;;;8.36;100.00;100078.47;4971720;28;20441;-86
2023/08/20 18:47:09;;;;;;;;;;;;;;;8.34;100.00;100075.88;4955931;28;19961;-86
2023/08/20 18:49:36;;;;;;;;;;;;;;;8.76;100.00;100087.88;4956661;28;19914;-86
2023/08/20 18:52:01;;;;;;;;;;;;;;;9.05;100.00;100089.59;4954511;28;20318;-87
2023/08/20 18:54:27;;;;;;;;;;;;;;;9.05;100.00;100099.31;4971580;28;19930;-86
2023/08/20 18:57:10;;;;;;;;;;;;;;;8.59;100.00;100098.09;4970164;28;19941;-88
2023/08/20 18:59:36;;;;;;;;;;;;;;;8.58;100.00;100094.56;4954950;28;19929;-87
2023/08/20 19:02:01;;;;;;;;;;;;;;;8.46;100.00;100089.66;4973206;28;19922;-86
2023/08/20 19:04:30;;;;;;;;;;;;;;;8.36;100.00;100089.88;4971389;28;19926;-93
2023/08/20 19:06:55;;;;;;;;;;;;;;;8.33;100.00;100100.53;4955583;28;19965;-87
2023/08/20 19:09:20;;;;;;;;;;;;;;;8.69;100.00;100102.16;4955090;28;20366;-86
2023/08/20 19:11:45;;;;;;;;;;;;;;;8.98;100.00;100110.97;4973565;28;19941;-91
2023/08/20 19:14:13;;;;;;;;;;;;;;;9.17;100.00;100111.25;4948380;28;20370;-89
2023/08/20 19:16:38;;;;;;;;;;;;;;;8.97;100.00;100118.06;4954587;28;19926;-86
2023/08/20 19:19:04;;;;;;;;;;;;;;;8.68;100.00;100121.56;4955727;28;19969;-86
2023/08/20 19:21:29;;;;;;;;;;;;;;;9.08;100.00;100126.50;4972736;28;20012;-91
2023/08/20 19:23:55;;;;;;;;;;;;;;;9.30;100.00;100132.88;4953603;28;19922;-86
2023/08/20 19:26:20;;;;;;;;;;;;;;;9.49;100.00;100125.22;4955714;28;19922;-87
2023/08/20 19:28:46;;;;;;;;;;;;;;;8.98;100.00;100132.13;4971700;28;19926;-86
2023/08/20 19:31:12;;;;;;;;;;;;;;;9.19;100.00;100138.50;4963370;28;19928;-86
2023/08/20 19:33:37;;;;;;;;;;;;;;;9.33;100.00;100133.66;4971665;28;19930;-84
2023/08/20 19:36:03;;;;;;;;;;;;;;;9.53;100.00;100142.75;4973063;28;19966;-89
2023/08/20 19:38:32;;;;;;;;;;;;;;;9.25;100.00;100139.22;4951865;28;19922;-91
2023/08/20 19:40:57;;;;;;;;;;;;;;;8.99;100.00;100137.38;4953738;28;19930;-86
2023/08/20 19:43:22;;;;;;;;;;;;;;;9.28;100.00;100138.22;4973344;28;19918;-89
2023/08/20 19:45:48;;;;;;;;;;;;;;;9.47;100.00;100148.22;4972364;28;20028;-87
2023/08/20 19:48:13;;;;;;;;;;;;;;;9.53;100.00;100146.25;4954559;28;19922;-86
2023/08/20 19:50:39;;;;;;;;;;;;;;;9.07;100.00;100151.19;4971992;28;19926;-86
2023/08/20 19:53:08;;;;;;;;;;;;;;;9.13;100.00;100154.59;4972736;28;20339;-86
2023/08/20 19:55:33;;;;;;;;;;;;;;;9.46;100.00;100160.56;4970280;28;20370;-85
2023/08/20 19:58:00;;;;;;;;;;;;;;;9.55;100.00;100154.13;4968082;28;19933;-86
2023/08/20 20:00:25;;;;;;;;;;;;;;;9.45;100.00;100162.34;4953530;28;19918;-88
2023/08/20 20:02:52;;;;;;;;;;;;;;;9.08;100.00;100162.66;4955479;28;20698;-89
2023/08/20 20:05:18;;;;;;;;;;;;;;;9.37;100.00;100160.88;4973505;28;19926;-86
2023/08/20 20:07:44;;;;;;;;;;;;;;;9.60;100.00;100171.56;4976095;28;19929;-88
2023/08/20 20:10:10;;;;;;;;;;;;;;;9.68;100.00;100176.59;4957492;28;19926;-86
2023/08/20 20:12:39;;;;;;;;;;;;;;;9.16;100.00;100176.50;4976557;28;20370;-85
2023/08/20 20:15:04;;;;;;;;;;;;;;;8.98;100.00;100174.41;4958000;28;19965;-85
2023/08/20 20:17:30;;;;;;;;;;;;;;;8.91;100.00;100168.44;4959073;28;19953;-86
2023/08/20 20:19:55;;;;;;;;;;;;;;;8.87;100.00;100172.09;4976950;28;19918;-86
2023/08/20 20:22:21;;;;;;;;;;;;;;;9.35;100.00;100174.16;4953010;28;19972;-86
2023/08/20 20:24:47;;;;;;;;;;;;;;;9.57;100.00;100171.69;4957367;28;19927;-86
2023/08/20 20:27:12;;;;;;;;;;;;;;;9.64;100.00;100178.50;4976246;28;19992;-86
2023/08/20 20:29:40;;;;;;;;;;;;;;;9.36;100.00;100182.94;4958019;28;20756;-85
2023/08/20 20:32:05;;;;;;;;;;;;;;;9.38;100.00;100181.09;4957184;28;20317;-85
2023/08/20 20:34:30;;;;;;;;;;;;;;;9.61;100.00;100185.69;4958434;28;19929;-84
2023/08/20 20:36:56;;;;;;;;;;;;;;;9.74;100.00;100186.13;4951669;28;20363;-84
2023/08/20 20:39:25;;;;;;;;;;;;;;;9.57;100.00;100190.22;4959648;28;20012;-87
2023/08/20 20:41:50;;;;;;;;;;;;;;;9.22;100.00;100178.97;4959296;28;19918;-85
2023/08/20 20:44:23;;;;;;;;;;;;;;;9.60;100.00;100187.44;4954761;28;19923;-84
2023/08/20 20:46:51;;;;;;;;;;;;;;;9.81;100.00;100190.28;4958375;28;19926;-85
2023/08/20 20:49:17;;;;;;;;;;;;;;;9.60;100.00;100190.06;4958947;28;20008;-84
2023/08/20 20:51:42;;;;;;;;;;;;;;;9.22;100.00;100184.25;4975789;28;20065;-86
2023/08/20 20:54:07;;;;;;;;;;;;;;;9.57;100.00;100187.56;4958588;28;19926;-85
2023/08/20 20:56:32;;;;;;;;;;;;;;;9.72;100.00;100180.03;4973615;28;20710;-85
2023/08/20 20:58:58;;;;;;;;;;;;;;;9.69;100.00;100185.44;4957373;28;19925;-84
2023/08/20 21:01:23;;;;;;;;;;;;;;;9.24;100.00;100182.41;4976231;28;19926;-85
2023/08/20 21:03:49;;;;;;;;;;;;;;;9.04;100.00;100177.72;4974716;28;19922;-86
2023/08/20 21:06:14;;;;;;;;;;;;;;;8.94;100.00;100172.78;4958386;28;19926;-87
2023/08/20 21:08:40;;;;;;;;;;;;;;;9.26;100.00;100177.94;4957321;28;20270;-85
2023/08/20 21:11:05;;;;;;;;;;;;;;;9.51;100.00;100192.16;4957988;28;20012;-85
2023/08/20 21:13:30;;;;;;;;;;;;;;;9.70;100.00;100195.06;4974473;28;20377;-85
2023/08/20 21:15:56;;;;;;;;;;;;;;;9.36;100.00;100197.03;4954885;28;20021;-87
2023/08/20 21:18:21;;;;;;;;;;;;;;;9.02;100.00;100194.56;4955474;28;19937;-86
2023/08/20 21:20:46;;;;;;;;;;;;;;;8.88;100.00;100185.25;4955902;28;19930;-85
2023/08/20 21:23:12;;;;;;;;;;;;;;;8.85;100.00;100190.63;4958733;28;19964;-87
2023/08/20 21:25:37;;;;;;;;;;;;;;;9.25;100.00;100188.56;4957035;28;19937;-85
2023/08/20 21:28:02;;;;;;;;;;;;;;;9.55;100.00;100194.66;4975368;28;19926;-87
2023/08/20 21:30:28;;;;;;;;;;;;;;;9.63;100.00;100195.28;4956215;28;20120;-85
2023/08/20 21:32:53;;;;;;;;;;;;;;;9.24;100.00;100194.78;4956536;28;19922;-84
2023/08/20 21:35:18;;;;;;;;;;;;;;;8.93;100.00;100186.91;4973733;28;20389;-86
2023/08/20 21:37:46;;;;;;;;;;;;;;;8.85;100.00;100185.34;4973995;28;20293;-85
2023/08/20 21:40:12;;;;;;;;;;;;;;;8.90;100.00;100183.44;4956989;28;19950;-85
2023/08/20 21:42:37;;;;;;;;;;;;;;;9.32;100.00;100186.59;4957920;28;20016;-85
2023/08/20 21:45:03;;;;;;;;;;;;;;;9.63;100.00;100183.84;4974269;28;19918;-86
2023/08/20 21:47:28;;;;;;;;;;;;;;;9.54;100.00;100190.31;4975224;28;19926;-84
2023/08/20 21:49:54;;;;;;;;;;;;;;;9.06;100.00;100191.78;4957945;28;19922;-85
2023/08/20 21:52:20;;;;;;;;;;;;;;;9.41;100.00;100191.59;4956145;28;20435;-85
2023/08/20 21:54:46;;;;;;;;;;;;;;;9.68;100.00;100187.19;4973323;28;19922;-85
2023/08/20 21:57:18;;;;;;;;;;;;;;;9.78;100.00;100190.41;4975143;28;19965;-85
2023/08/20 21:59:47;;;;;;;;;;;;;;;9.19;100.00;100184.34;4956017;28;20436;-85
2023/08/20 22:02:13;;;;;;;;;;;;;;;9.02;100.00;100186.63;4964572;28;19924;-85
2023/08/20 22:04:38;;;;;;;;;;;;;;;8.93;100.00;100181.63;4955855;28;19922;-84
2023/08/20 22:07:03;;;;;;;;;;;;;;;9.23;100.00;100183.31;4953368;28;19954;-86
2023/08/20 22:09:30;;;;;;;;;;;;;;;9.60;100.00;100186.56;4953539;28;19945;-84
2023/08/20 22:11:55;;;;;;;;;;;;;;;9.75;100.00;100193.16;4955190;28;20033;-85
2023/08/20 22:14:21;;;;;;;;;;;;;;;9.25;100.00;100189.44;4951126;28;20473;-84
2023/08/20 22:16:46;;;;;;;;;;;;;;;8.92;100.00;100183.41;4955899;28;19922;-85
2023/08/20 22:19:11;;;;;;;;;;;;;;;8.85;100.00;100181.84;4955358;28;20044;-84
2023/08/20 22:21:36;;;;;;;;;;;;;;;8.74;100.00;100184.78;4972802;28;20013;-85
2023/08/20 22:24:02;;;;;;;;;;;;;;;8.65;100.00;100185.94;4954739;28;20329;-86
2023/08/20 22:26:30;;;;;;;;;;;;;;;8.61;100.00;100181.63;4955654;28;20025;-84
2023/08/20 22:28:55;;;;;;;;;;;;;;;9.11;100.00;100189.00;4956150;28;19952;-84
2023/08/20 22:31:21;;;;;;;;;;;;;;;9.47;100.00;100201.97;4970606;28;20390;-85
2023/08/20 22:33:46;;;;;;;;;;;;;;;9.66;100.00;100193.47;4955319;28;19922;-84
2023/08/20 22:36:11;;;;;;;;;;;;;;;9.25;100.00;100194.75;4956380;28;19929;-85
2023/08/20 22:38:36;;;;;;;;;;;;;;;9.00;100.00;100197.25;4973153;28;19954;-85
2023/08/20 22:41:02;;;;;;;;;;;;;;;8.82;100.00;100189.84;4974717;28;19964;-89
2023/08/20 22:43:28;;;;;;;;;;;;;;;8.79;100.00;100187.31;4972491;28;19933;-88
2023/08/20 22:45:53;;;;;;;;;;;;;;;8.69;100.00;100187.56;4972195;28;19930;-85
2023/08/20 22:48:18;;;;;;;;;;;;;;;8.70;100.00;100191.09;4956246;28;19929;-84
2023/08/20 22:50:43;;;;;;;;;;;;;;;8.63;100.00;100186.88;4971905;28;19926;-85
2023/08/20 22:53:08;;;;;;;;;;;;;;;9.01;100.00;100188.38;4972619;28;19968;-85
2023/08/20 22:55:34;;;;;;;;;;;;;;;9.25;100.00;100185.91;4973516;28;19926;-85
2023/08/20 22:57:59;;;;;;;;;;;;;;;9.48;100.00;100201.09;4970485;28;19929;-84
2023/08/20 23:00:24;;;;;;;;;;;;;;;9.08;100.00;100197.03;4972174;28;20397;-85
2023/08/20 23:02:49;;;;;;;;;;;;;;;8.70;100.00;100199.00;4956276;28;19918;-84
2023/08/20 23:05:18;;;;;;;;;;;;;;;8.66;100.00;100195.59;4955587;28;19981;-84
2023/08/20 23:07:43;;;;;;;;;;;;;;;8.58;100.00;100191.44;4973848;28;19922;-85
2023/08/20 23:10:08;;;;;;;;;;;;;;;8.58;100.00;100181.72;4955226;28;20389;-85
2023/08/20 23:12:34;;;;;;;;;;;;;;;8.49;100.00;100174.94;4971530;28;19926;-85
2023/08/20 23:14:59;;;;;;;;;;;;;;;8.56;100.00;100182.69;4971641;28;20370;-85
2023/08/20 23:17:24;;;;;;;;;;;;;;;8.45;100.00;100183.84;4956423;28;19918;-84